createdAt,value
2017-12-26T00:01:52.784Z,10.47
2017-12-26T00:04:22.602Z,10.47
2017-12-26T00:06:50.023Z,10.73
2017-12-26T00:09:17.489Z,11.70
2017-12-26T00:11:44.923Z,10.10
2017-12-26T00:14:13.282Z,11.37
2017-12-26T00:16:40.703Z,11.50
2017-12-26T00:19:09.441Z,11.53
2017-12-26T00:21:37.205Z,9.93
2017-12-26T00:24:04.647Z,9.63
2017-12-26T00:26:32.128Z,10.33
2017-12-26T00:29:00.431Z,10.20
2017-12-26T00:31:28.127Z,12.20
2017-12-26T00:33:55.575Z,10.37
2017-12-26T00:36:23.077Z,9.50
2017-12-26T00:38:50.544Z,11.00
2017-12-26T00:41:18.689Z,9.93
2017-12-26T00:43:46.136Z,10.10
2017-12-26T00:46:13.589Z,9.87
2017-12-26T00:48:41.038Z,9.97
2017-12-26T00:51:08.589Z,10.07
2017-12-26T00:53:36.137Z,10.87
2017-12-26T00:56:03.644Z,10.57
2017-12-26T00:58:31.057Z,9.53
2017-12-26T01:00:58.537Z,9.17
2017-12-26T01:03:25.991Z,9.87
2017-12-26T01:05:53.427Z,10.10
2017-12-26T01:08:20.887Z,11.20
2017-12-26T01:10:48.343Z,10.57
2017-12-26T01:13:15.767Z,9.67
2017-12-26T01:15:43.279Z,9.83
2017-12-26T01:18:10.773Z,9.53
2017-12-26T01:20:38.214Z,10.47
2017-12-26T01:23:05.901Z,8.73
2017-12-26T01:25:33.406Z,9.03
2017-12-26T01:28:00.844Z,9.07
2017-12-26T01:30:28.356Z,9.23
2017-12-26T01:32:55.832Z,10.43
2017-12-26T01:35:23.268Z,11.13
2017-12-26T01:37:50.711Z,10.50
2017-12-26T01:40:18.151Z,8.83
2017-12-26T01:42:45.569Z,9.87
2017-12-26T01:45:13.828Z,10.57
2017-12-26T01:47:41.255Z,9.53
2017-12-26T01:50:08.678Z,11.20
2017-12-26T01:52:36.389Z,10.53
2017-12-26T01:55:03.858Z,10.13
2017-12-26T01:57:31.297Z,10.67
2017-12-26T01:59:58.707Z,9.97
2017-12-26T02:02:26.242Z,10.47
2017-12-26T02:04:53.668Z,11.10
2017-12-26T02:07:21.088Z,9.80
2017-12-26T02:09:48.562Z,9.73
2017-12-26T02:12:15.986Z,11.73
2017-12-26T02:14:43.411Z,9.63
2017-12-26T02:17:11.568Z,10.97
2017-12-26T02:19:38.973Z,9.90
2017-12-26T02:22:06.674Z,9.73
2017-12-26T02:24:34.586Z,10.13
2017-12-26T02:27:02.006Z,10.40
2017-12-26T02:29:29.532Z,10.67
2017-12-26T02:31:56.969Z,11.70
2017-12-26T02:34:24.392Z,10.10
2017-12-26T02:36:51.820Z,10.43
2017-12-26T02:39:19.261Z,10.33
2017-12-26T02:41:46.806Z,8.60
2017-12-26T02:44:14.282Z,9.07
2017-12-26T02:46:41.733Z,10.93
2017-12-26T02:49:09.188Z,9.00
2017-12-26T02:51:36.638Z,9.30
2017-12-26T02:54:04.094Z,9.90
2017-12-26T02:56:31.538Z,10.40
2017-12-26T02:58:59.081Z,9.40
2017-12-26T03:01:26.503Z,10.50
2017-12-26T03:03:54.236Z,9.53
2017-12-26T03:06:21.651Z,10.50
2017-12-26T03:08:49.106Z,8.93
2017-12-26T03:11:17.433Z,11.00
2017-12-26T03:13:44.904Z,10.53
2017-12-26T03:16:12.331Z,9.83
2017-12-26T03:18:39.796Z,8.83
2017-12-26T03:21:07.228Z,10.33
2017-12-26T03:23:34.687Z,9.43
2017-12-26T03:26:02.202Z,9.43
2017-12-26T03:28:29.628Z,10.53
2017-12-26T03:30:57.067Z,10.53
2017-12-26T03:33:24.522Z,9.20
2017-12-26T03:35:51.964Z,10.63
2017-12-26T03:38:19.476Z,9.10
2017-12-26T03:40:46.908Z,10.30
2017-12-26T03:43:14.609Z,10.37
2017-12-26T03:45:42.037Z,10.87
2017-12-26T03:48:09.554Z,12.97
2017-12-26T03:50:38.940Z,12.00
2017-12-26T03:53:06.392Z,10.47
2017-12-26T03:55:34.565Z,11.03
2017-12-26T03:58:02.019Z,11.30
2017-12-26T04:00:30.413Z,10.13
2017-12-26T04:02:59.776Z,10.73
2017-12-26T04:05:28.840Z,11.40
2017-12-26T04:07:56.549Z,10.07
2017-12-26T04:10:24.100Z,10.97
2017-12-26T04:12:51.843Z,9.43
2017-12-26T04:15:19.353Z,10.20
2017-12-26T04:17:46.848Z,9.87
2017-12-26T04:20:15.162Z,10.73
2017-12-26T04:22:42.929Z,10.40
2017-12-26T04:25:12.412Z,10.00
2017-12-26T04:27:44.180Z,10.00
2017-12-26T04:30:12.622Z,10.73
2017-12-26T04:32:40.137Z,10.77
2017-12-26T04:35:07.923Z,9.67
2017-12-26T04:37:35.421Z,9.50
2017-12-26T04:40:02.908Z,12.07
2017-12-26T04:42:30.657Z,11.27
2017-12-26T04:44:58.145Z,11.73
2017-12-26T04:47:26.473Z,10.53
2017-12-26T04:49:53.964Z,10.73
2017-12-26T04:52:21.442Z,11.07
2017-12-26T04:54:48.968Z,11.10
2017-12-26T04:57:17.427Z,13.53
2017-12-26T04:59:44.909Z,12.60
2017-12-26T05:02:12.389Z,13.47
2017-12-26T05:04:39.883Z,12.43
2017-12-26T05:07:07.894Z,11.50
2017-12-26T05:09:35.368Z,11.97
2017-12-26T05:12:02.866Z,12.60
2017-12-26T05:14:30.369Z,12.23
2017-12-26T05:16:57.853Z,11.13
2017-12-26T05:19:25.391Z,13.17
2017-12-26T05:21:54.905Z,12.30
2017-12-26T05:24:22.386Z,14.20
2017-12-26T05:26:50.268Z,13.83
2017-12-26T05:29:17.787Z,12.07
2017-12-26T05:31:47.245Z,13.73
2017-12-26T05:34:14.785Z,14.33
2017-12-26T05:36:43.150Z,14.77
2017-12-26T05:39:10.652Z,14.93
2017-12-26T05:41:38.183Z,14.03
2017-12-26T05:44:05.685Z,12.57
2017-12-26T05:46:33.178Z,13.83
2017-12-26T05:49:00.904Z,16.30
2017-12-26T05:51:28.500Z,13.23
2017-12-26T05:53:56.013Z,13.83
2017-12-26T05:56:23.517Z,14.40
2017-12-26T05:58:51.026Z,13.97
2017-12-26T06:01:18.526Z,12.83
2017-12-26T06:03:46.066Z,15.50
2017-12-26T06:06:13.528Z,14.43
2017-12-26T06:08:40.987Z,14.63
2017-12-26T06:11:09.281Z,14.50
2017-12-26T06:13:36.810Z,14.50
2017-12-26T06:16:04.311Z,14.43
2017-12-26T06:18:31.829Z,12.77
2017-12-26T06:20:59.326Z,14.57
2017-12-26T06:23:26.843Z,13.60
2017-12-26T06:25:54.360Z,13.73
2017-12-26T06:28:21.902Z,13.43
2017-12-26T06:30:49.412Z,13.07
2017-12-26T06:33:16.920Z,13.93
2017-12-26T06:35:44.422Z,12.17
2017-12-26T06:38:11.962Z,12.97
2017-12-26T06:40:39.473Z,14.00
2017-12-26T06:43:11.930Z,12.80
2017-12-26T06:45:39.674Z,11.93
2017-12-26T06:48:08.984Z,11.87
2017-12-26T06:50:37.339Z,12.53
2017-12-26T06:53:04.854Z,11.87
2017-12-26T06:55:32.381Z,11.63
2017-12-26T06:57:59.854Z,11.83
2017-12-26T07:00:27.415Z,12.00
2017-12-26T07:02:55.121Z,10.90
2017-12-26T07:05:22.909Z,10.80
2017-12-26T07:07:50.405Z,10.37
2017-12-26T07:10:17.904Z,10.93
2017-12-26T07:12:45.474Z,9.43
2017-12-26T07:15:12.984Z,10.10
2017-12-26T07:17:40.478Z,10.93
2017-12-26T07:20:13.434Z,10.17
2017-12-26T07:22:40.941Z,10.10
2017-12-26T07:25:08.433Z,9.20
2017-12-26T07:27:35.925Z,10.57
2017-12-26T07:30:03.446Z,8.87
2017-12-26T07:32:30.924Z,9.27
2017-12-26T07:34:58.446Z,8.27
2017-12-26T07:37:25.944Z,8.47
2017-12-26T07:39:54.317Z,9.13
2017-12-26T07:42:21.815Z,9.13
2017-12-26T07:44:49.329Z,8.43
2017-12-26T07:47:17.079Z,9.30
2017-12-26T07:49:44.611Z,8.70
2017-12-26T07:52:12.090Z,8.83
2017-12-26T07:54:39.596Z,8.93
2017-12-26T07:57:07.120Z,8.07
2017-12-26T07:59:34.673Z,9.23
2017-12-26T08:02:02.202Z,7.83
2017-12-26T08:04:29.690Z,8.47
2017-12-26T08:06:57.119Z,7.90
2017-12-26T08:09:24.637Z,7.27
2017-12-26T08:11:52.082Z,9.80
2017-12-26T08:14:19.549Z,8.80
2017-12-26T08:16:47.037Z,7.70
2017-12-26T08:19:14.470Z,7.43
2017-12-26T08:21:41.973Z,7.00
2017-12-26T08:24:09.422Z,7.63
2017-12-26T08:26:36.860Z,8.07
2017-12-26T08:29:04.366Z,8.30
2017-12-26T08:31:31.804Z,7.60
2017-12-26T08:33:59.599Z,7.33
2017-12-26T08:36:27.031Z,7.17
2017-12-26T08:38:54.752Z,7.50
2017-12-26T08:41:22.194Z,8.10
2017-12-26T08:43:49.654Z,6.83
2017-12-26T08:46:17.085Z,7.97
2017-12-26T08:48:44.508Z,7.33
2017-12-26T08:51:11.968Z,8.10
2017-12-26T08:53:39.421Z,7.27
2017-12-26T08:56:07.649Z,8.03
2017-12-26T08:58:35.121Z,7.53
2017-12-26T09:01:02.573Z,7.97
2017-12-26T09:03:30.012Z,7.30
2017-12-26T09:05:57.480Z,6.83
2017-12-26T09:08:24.969Z,7.13
2017-12-26T09:10:52.435Z,7.70
2017-12-26T09:13:19.892Z,7.30
2017-12-26T09:15:47.331Z,7.00
2017-12-26T09:18:14.836Z,7.40
2017-12-26T09:20:42.285Z,9.03
2017-12-26T09:23:10.791Z,7.80
2017-12-26T09:25:38.251Z,9.03
2017-12-26T09:28:05.657Z,7.70
2017-12-26T09:30:33.121Z,8.50
2017-12-26T09:33:00.576Z,8.40
2017-12-26T09:35:27.996Z,7.80
2017-12-26T09:37:55.465Z,7.50
2017-12-26T09:40:25.806Z,7.63
2017-12-26T09:42:58.329Z,7.93
2017-12-26T09:45:26.625Z,9.03
2017-12-26T09:47:54.045Z,8.03
2017-12-26T09:50:21.484Z,8.20
2017-12-26T09:52:50.551Z,8.90
2017-12-26T09:55:18.047Z,8.33
2017-12-26T09:57:45.659Z,7.97
2017-12-26T10:00:13.204Z,7.73
2017-12-26T10:02:40.732Z,8.93
2017-12-26T10:05:08.227Z,7.67
2017-12-26T10:07:35.710Z,9.47
2017-12-26T10:10:03.178Z,7.17
2017-12-26T10:12:31.451Z,7.90
2017-12-26T10:14:58.916Z,6.97
2017-12-26T10:17:27.041Z,7.70
2017-12-26T10:19:54.542Z,7.30
2017-12-26T10:22:22.059Z,7.17
2017-12-26T10:24:50.279Z,7.53
2017-12-26T10:27:17.746Z,7.70
2017-12-26T10:29:46.027Z,7.57
2017-12-26T10:32:13.545Z,9.23
2017-12-26T10:34:41.063Z,6.50
2017-12-26T10:37:08.623Z,6.70
2017-12-26T10:39:36.162Z,9.77
2017-12-26T10:42:03.650Z,7.70
2017-12-26T10:44:31.120Z,7.07
2017-12-26T10:46:58.597Z,7.27
2017-12-26T10:49:26.066Z,7.03
2017-12-26T10:51:53.806Z,6.57
2017-12-26T10:54:21.294Z,7.27
2017-12-26T10:56:48.785Z,6.93
2017-12-26T10:59:16.261Z,9.23
2017-12-26T11:01:43.939Z,6.63
2017-12-26T11:04:11.373Z,7.63
2017-12-26T11:06:38.836Z,7.53
2017-12-26T11:09:06.334Z,8.10
2017-12-26T11:11:33.840Z,6.47
2017-12-26T11:14:01.288Z,6.13
2017-12-26T11:16:28.763Z,7.63
2017-12-26T11:18:56.302Z,6.17
2017-12-26T11:21:24.010Z,6.13
2017-12-26T11:23:51.492Z,6.20
2017-12-26T11:26:18.910Z,6.67
2017-12-26T11:28:46.393Z,5.90
2017-12-26T11:31:13.853Z,6.93
2017-12-26T11:33:41.382Z,6.47
2017-12-26T11:36:08.834Z,7.00
2017-12-26T11:38:36.286Z,5.90
2017-12-26T11:41:03.856Z,5.50
2017-12-26T11:43:31.393Z,5.87
2017-12-26T11:45:59.099Z,5.53
2017-12-26T11:48:26.605Z,6.43
2017-12-26T11:50:54.794Z,5.97
2017-12-26T11:53:22.251Z,5.47
2017-12-26T11:55:49.745Z,5.70
2017-12-26T11:58:17.179Z,5.80
2017-12-26T12:00:44.653Z,5.23
2017-12-26T12:03:12.093Z,5.40
2017-12-26T12:05:39.530Z,6.60
2017-12-26T12:08:06.998Z,5.13
2017-12-26T12:10:34.453Z,5.70
2017-12-26T12:13:01.898Z,5.57
2017-12-26T12:15:29.411Z,5.87
2017-12-26T12:17:56.897Z,5.03
2017-12-26T12:20:24.361Z,6.07
2017-12-26T12:22:51.819Z,5.87
2017-12-26T12:25:19.269Z,4.97
2017-12-26T12:27:46.718Z,6.33
2017-12-26T12:30:14.234Z,6.13
2017-12-26T12:32:41.672Z,5.40
2017-12-26T12:35:09.123Z,5.87
2017-12-26T12:37:36.592Z,6.67
2017-12-26T12:40:04.095Z,5.77
2017-12-26T12:42:31.586Z,6.53
2017-12-26T12:44:59.025Z,5.40
2017-12-26T12:47:26.498Z,5.00
2017-12-26T12:49:53.937Z,6.40
2017-12-26T12:52:21.586Z,4.93
2017-12-26T12:55:08.245Z,5.53
2017-12-26T12:57:35.784Z,4.80
2017-12-26T13:00:03.279Z,7.23
2017-12-26T13:02:31.023Z,5.80
2017-12-26T13:04:58.485Z,6.17
2017-12-26T13:07:26.010Z,5.33
2017-12-26T13:09:53.453Z,4.67
2017-12-26T13:12:20.891Z,6.00
2017-12-26T13:14:48.385Z,6.23
2017-12-26T13:17:15.965Z,5.73
2017-12-26T13:19:43.501Z,4.43
2017-12-26T13:22:10.978Z,5.17
2017-12-26T13:24:38.438Z,4.87
2017-12-26T13:27:05.912Z,4.63
2017-12-26T13:29:33.368Z,4.20
2017-12-26T13:32:00.941Z,4.33
2017-12-26T13:34:28.427Z,3.47
2017-12-26T13:36:55.971Z,4.43
2017-12-26T13:39:23.454Z,3.60
2017-12-26T13:41:50.896Z,3.80
2017-12-26T13:44:18.339Z,3.97
2017-12-26T13:46:45.806Z,3.43
2017-12-26T13:49:13.251Z,3.57
2017-12-26T13:51:40.743Z,3.10
2017-12-26T13:54:08.205Z,3.03
2017-12-26T13:56:35.647Z,3.63
2017-12-26T13:59:03.157Z,3.47
2017-12-26T14:01:30.664Z,5.13
2017-12-26T14:03:58.173Z,3.60
2017-12-26T14:06:25.629Z,3.10
2017-12-26T14:08:53.156Z,3.30
2017-12-26T14:11:20.642Z,2.90
2017-12-26T14:13:48.185Z,3.60
2017-12-26T14:16:15.620Z,3.10
2017-12-26T14:18:43.070Z,4.00
2017-12-26T14:21:10.518Z,3.13
2017-12-26T14:23:38.064Z,3.60
2017-12-26T14:26:05.534Z,3.80
2017-12-26T14:28:32.995Z,3.13
2017-12-26T14:31:00.525Z,3.60
2017-12-26T14:33:28.090Z,3.60
2017-12-26T14:35:55.543Z,2.80
2017-12-26T14:38:23.047Z,2.47
2017-12-26T14:40:50.784Z,2.97
2017-12-26T14:43:18.250Z,2.47
2017-12-26T14:45:45.744Z,2.50
2017-12-26T14:48:13.192Z,3.37
2017-12-26T14:50:40.701Z,2.97
2017-12-26T14:53:08.141Z,2.87
2017-12-26T14:55:35.694Z,3.00
2017-12-26T14:58:03.183Z,2.70
2017-12-26T15:00:30.667Z,2.53
2017-12-26T15:02:58.103Z,2.20
2017-12-26T15:05:25.576Z,2.20
2017-12-26T15:07:53.078Z,2.40
2017-12-26T15:10:20.535Z,2.60
2017-12-26T15:12:48.036Z,2.70
2017-12-26T15:15:15.551Z,3.40
2017-12-26T15:17:42.974Z,2.60
2017-12-26T15:20:10.503Z,2.37
2017-12-26T15:22:38.216Z,3.07
2017-12-26T15:25:05.699Z,2.27
2017-12-26T15:27:33.145Z,2.80
2017-12-26T15:30:00.614Z,3.43
2017-12-26T15:32:28.049Z,3.70
2017-12-26T15:34:55.501Z,3.03
2017-12-26T15:37:23.682Z,2.70
2017-12-26T15:39:55.560Z,2.60
2017-12-26T15:42:23.013Z,2.30
2017-12-26T15:44:50.554Z,2.10
2017-12-26T15:47:18.028Z,2.37
2017-12-26T15:49:45.478Z,2.30
2017-12-26T15:52:13.006Z,2.60
2017-12-26T15:54:40.819Z,2.40
2017-12-26T15:57:08.280Z,3.17
2017-12-26T15:59:35.731Z,2.30
2017-12-26T16:02:03.149Z,2.20
2017-12-26T16:04:30.731Z,2.43
2017-12-26T16:06:58.162Z,2.00
2017-12-26T16:09:25.658Z,2.00
2017-12-26T16:11:53.124Z,2.23
2017-12-26T16:14:21.408Z,2.83
2017-12-26T16:16:48.821Z,2.90
2017-12-26T16:19:16.278Z,2.17
2017-12-26T16:21:43.970Z,1.90
2017-12-26T16:24:11.433Z,2.40
2017-12-26T16:26:38.888Z,2.27
2017-12-26T16:29:06.389Z,2.27
2017-12-26T16:31:33.864Z,2.03
2017-12-26T16:34:01.320Z,2.20
2017-12-26T16:36:29.610Z,2.20
2017-12-26T16:38:57.072Z,5.23
2017-12-26T16:41:24.500Z,2.57
2017-12-26T16:43:51.998Z,2.47
2017-12-26T16:46:19.529Z,2.70
2017-12-26T16:48:46.956Z,2.20
2017-12-26T16:51:14.431Z,2.03
2017-12-26T16:53:41.875Z,2.00
2017-12-26T16:56:09.929Z,2.20
2017-12-26T16:58:37.384Z,2.30
2017-12-26T17:01:04.839Z,2.03
2017-12-26T17:03:32.294Z,2.60
2017-12-26T17:05:59.742Z,2.20
2017-12-26T17:08:27.265Z,2.23
2017-12-26T17:10:54.719Z,2.20
2017-12-26T17:13:27.215Z,2.40
2017-12-26T17:15:54.652Z,2.50
2017-12-26T17:18:22.143Z,2.67
2017-12-26T17:20:49.589Z,2.10
2017-12-26T17:23:18.034Z,2.50
2017-12-26T17:25:46.252Z,2.73
2017-12-26T17:28:13.697Z,2.40
2017-12-26T17:30:41.524Z,3.53
2017-12-26T17:33:08.973Z,2.60
2017-12-26T17:35:36.412Z,2.80
2017-12-26T17:38:03.881Z,2.50
2017-12-26T17:40:31.303Z,4.87
2017-12-26T17:42:58.788Z,3.10
2017-12-26T17:45:26.254Z,2.90
2017-12-26T17:47:53.675Z,6.83
2017-12-26T17:50:21.193Z,2.40
2017-12-26T17:52:48.632Z,2.40
2017-12-26T17:55:16.127Z,2.23
2017-12-26T17:57:43.619Z,2.57
2017-12-26T18:00:11.086Z,2.57
2017-12-26T18:02:38.540Z,2.17
2017-12-26T18:05:06.030Z,2.00
2017-12-26T18:07:33.582Z,2.00
2017-12-26T18:10:01.214Z,3.53
2017-12-26T18:12:28.936Z,2.30
2017-12-26T18:14:56.410Z,2.40
2017-12-26T18:17:23.884Z,2.63
2017-12-26T18:19:51.342Z,2.40
2017-12-26T18:22:18.792Z,2.50
2017-12-26T18:24:46.280Z,2.13
2017-12-26T18:27:13.734Z,2.50
2017-12-26T18:29:41.254Z,2.40
2017-12-26T18:32:08.712Z,2.60
2017-12-26T18:34:36.187Z,2.77
2017-12-26T18:37:03.698Z,2.37
2017-12-26T18:39:31.277Z,2.30
2017-12-26T18:41:58.711Z,2.90
2017-12-26T18:44:26.238Z,3.37
2017-12-26T18:46:53.949Z,2.60
2017-12-26T18:49:21.404Z,2.50
2017-12-26T18:51:48.833Z,2.63
2017-12-26T18:54:16.935Z,2.40
2017-12-26T18:56:44.383Z,2.20
2017-12-26T18:59:11.879Z,2.13
2017-12-26T19:01:39.320Z,2.30
2017-12-26T19:04:06.861Z,2.10
2017-12-26T19:06:34.350Z,4.07
2017-12-26T19:09:01.838Z,2.30
2017-12-26T19:11:29.386Z,2.43
2017-12-26T19:13:56.816Z,2.50
2017-12-26T19:16:24.262Z,2.30
2017-12-26T19:18:51.765Z,2.87
2017-12-26T19:21:19.251Z,2.43
2017-12-26T19:23:46.708Z,2.60
2017-12-26T19:26:14.160Z,2.80
2017-12-26T19:28:41.624Z,2.33
2017-12-26T19:31:09.095Z,2.80
2017-12-26T19:33:36.573Z,2.53
2017-12-26T19:36:04.018Z,2.93
2017-12-26T19:38:31.699Z,2.73
2017-12-26T19:40:59.140Z,2.63
2017-12-26T19:43:26.594Z,3.00
2017-12-26T19:45:54.057Z,2.87
2017-12-26T19:48:21.528Z,2.70
2017-12-26T19:50:49.056Z,2.80
2017-12-26T19:53:16.540Z,2.57
2017-12-26T19:55:43.984Z,3.03
2017-12-26T19:58:11.449Z,2.83
2017-12-26T20:00:38.909Z,2.90
2017-12-26T20:03:06.391Z,2.67
2017-12-26T20:05:33.814Z,2.80
2017-12-26T20:08:01.343Z,4.47
2017-12-26T20:10:28.806Z,3.00
2017-12-26T20:12:56.523Z,2.73
2017-12-26T20:15:24.030Z,3.20
2017-12-26T20:17:51.558Z,2.83
2017-12-26T20:20:19.036Z,3.10
2017-12-26T20:22:46.519Z,3.37
2017-12-26T20:25:13.958Z,4.03
2017-12-26T20:27:41.413Z,3.23
2017-12-26T20:30:08.893Z,3.90
2017-12-26T20:32:36.427Z,2.63
2017-12-26T20:35:03.848Z,2.93
2017-12-26T20:37:31.375Z,3.07
2017-12-26T20:39:58.851Z,4.10
2017-12-26T20:42:26.352Z,2.70
2017-12-26T20:44:53.811Z,2.80
2017-12-26T20:47:21.322Z,2.73
2017-12-26T20:49:49.050Z,2.70
2017-12-26T20:52:16.508Z,2.80
2017-12-26T20:54:43.972Z,4.10
2017-12-26T20:57:11.474Z,2.73
2017-12-26T20:59:38.976Z,3.23
2017-12-26T21:02:06.456Z,3.20
2017-12-26T21:04:33.967Z,2.40
2017-12-26T21:07:01.449Z,2.90
2017-12-26T21:09:28.900Z,3.80
2017-12-26T21:11:56.378Z,3.13
2017-12-26T21:14:23.818Z,3.33
2017-12-26T21:16:51.245Z,2.80
2017-12-26T21:19:18.729Z,3.40
2017-12-26T21:21:46.311Z,3.50
2017-12-26T21:24:14.010Z,3.10
2017-12-26T21:26:41.453Z,2.87
2017-12-26T21:29:08.951Z,3.00
2017-12-26T21:31:36.413Z,3.30
2017-12-26T21:34:03.850Z,2.83
2017-12-26T21:36:31.328Z,3.40
2017-12-26T21:38:58.785Z,3.03
2017-12-26T21:41:26.269Z,3.13
2017-12-26T21:43:53.752Z,3.27
2017-12-26T21:46:21.192Z,2.90
2017-12-26T21:48:48.782Z,2.83
2017-12-26T21:51:16.207Z,3.03
2017-12-26T21:53:43.699Z,3.00
2017-12-26T21:56:11.175Z,3.33
2017-12-26T21:58:38.628Z,3.17
2017-12-26T22:01:06.173Z,2.80
2017-12-26T22:03:34.316Z,4.23
2017-12-26T22:06:01.838Z,3.30
2017-12-26T22:08:29.318Z,4.20
2017-12-26T22:10:56.764Z,3.00
2017-12-26T22:13:24.282Z,3.17
2017-12-26T22:15:51.816Z,2.90
2017-12-26T22:18:19.287Z,2.87
2017-12-26T22:20:46.781Z,4.63
2017-12-26T22:23:14.530Z,3.13
2017-12-26T22:25:42.050Z,4.13
2017-12-26T22:28:09.808Z,2.80
2017-12-26T22:30:37.304Z,3.23
2017-12-26T22:33:05.577Z,3.27
2017-12-26T22:35:33.030Z,3.20
2017-12-26T22:38:00.511Z,4.40
2017-12-26T22:40:28.220Z,4.70
2017-12-26T22:42:55.714Z,4.10
2017-12-26T22:45:23.883Z,3.23
2017-12-26T22:47:51.365Z,2.83
2017-12-26T22:50:18.816Z,2.90
2017-12-26T22:52:46.510Z,4.07
2017-12-26T22:55:13.944Z,3.00
2017-12-26T22:57:41.473Z,3.47
2017-12-26T23:00:08.981Z,4.67
2017-12-26T23:02:36.494Z,4.17
2017-12-26T23:05:04.649Z,3.83
2017-12-26T23:07:32.122Z,2.90
2017-12-26T23:09:59.543Z,3.37
2017-12-26T23:12:26.990Z,3.63
2017-12-26T23:14:59.944Z,3.17
2017-12-26T23:17:32.929Z,3.27
2017-12-26T23:20:05.857Z,3.03
2017-12-26T23:22:33.327Z,3.20
2017-12-26T23:25:06.276Z,2.57
2017-12-26T23:27:39.194Z,2.90
2017-12-26T23:30:12.129Z,2.90
2017-12-26T23:32:45.026Z,2.90
2017-12-26T23:35:17.984Z,2.60
2017-12-26T23:37:50.931Z,2.80
2017-12-26T23:40:23.947Z,5.20
2017-12-26T23:42:57.789Z,2.87
2017-12-26T23:45:30.732Z,3.80
2017-12-26T23:48:03.635Z,2.87
2017-12-26T23:50:36.699Z,3.77
2017-12-26T23:53:09.679Z,4.10
2017-12-26T23:55:43.347Z,3.73
2017-12-26T23:58:17.254Z,2.90
